Latest Weather Observations for Warruwi

IDD60801

Issued at 7:11 pm CST Tuesday 23 October 2018 (issued every 10 minutes, with the page automatically refreshed every 10 minutes)

About weather observations | Map of weather stations | Latest weather observations for NT | Other Formats
Station Details ID: 014401 Name: WARRUWI AIRPORT Lat: -11.65 Lon: 133.38 Height: 19.2 m
Data from the previous 72 hours. | See also: Recent months at Warruwi
Date/Time
CST
Temp
°C
App
Temp
°C
Dew
Point
°C
Rel
Hum
%
Delta-T
°C
Wind Press
QNH
hPa
Press
MSL
hPa
Rain since
9am
mm
Dir  Spd
km/h
Gust
km/h
Spd
kts
Gust
kts
23/07:00pm 29.9 34.1 24.1 71 4.0 NNW 9 19 5 10 1009.3 1009.1 0.0
23/06:30pm 30.3 34.8 24.0 69 4.4 N 7 15 4 8 1008.9 1008.7 0.0
23/06:00pm 30.7 34.8 23.9 67 4.7 N 9 19 5 10 1008.7 1008.5 0.0
23/05:30pm 31.1 34.3 23.7 64 5.1 N 13 26 7 14 1008.6 1008.4 0.0
23/05:00pm 31.4 34.5 23.5 63 5.5 N 13 24 7 13 1008.3 1008.1 0.0
23/04:30pm 32.0 35.2 23.0 59 6.2 N 11 20 6 11 1008.1 1007.9 0.0
23/04:00pm 31.9 34.3 22.9 59 6.2 NNW 15 26 8 14 1008.1 1007.9 0.0
23/03:30pm 32.2 33.9 22.3 56 6.8 N 17 28 9 15 1008.1 1007.9 0.0
23/03:00pm 33.6 35.7 22.4 52 7.7 N 15 24 8 13 1008.1 1007.9 0.0
23/02:30pm 34.6 35.8 20.6 44 9.4 NNW 15 24 8 13 1008.1 1007.9 0.0
23/02:00pm 36.3 37.1 17.4 32 12.2 NNW 9 15 5 8 1008.4 1008.2 0.0
23/01:30pm 36.0 36.4 17.2 33 12.1 WNW 11 20 6 11 1008.8 1008.6 0.0
23/01:00pm 35.7 37.1 18.7 36 11.2 WSW 9 15 5 8 1009.5 1009.3 0.0
23/12:30pm 35.1 36.3 17.3 34 11.5 NW 7 13 4 7 1010.1 1009.9 0.0
23/12:00pm 34.5 35.1 17.7 37 10.9 W 11 15 6 8 1010.6 1010.4 0.0
23/11:30am 34.0 35.8 19.6 42 9.5 WNW 9 19 5 10 1011.1 1010.9 0.0
23/11:00am 34.4 36.4 20.7 44 9.2 W 11 17 6 9 1011.4 1011.2 0.0
23/10:30am 32.6 34.8 20.5 49 8.1 SSW 9 17 5 9 1011.9 1011.7 0.0
23/10:00am 32.6 36.0 22.7 56 6.8 SW 9 19 5 10 1012.0 1011.8 0.0
23/09:30am 31.5 34.0 22.5 59 6.2 SSW 13 17 7 9 1012.1 1011.9 0.0
23/09:00am 30.2 33.7 23.6 67 4.6 SW 11 17 6 9 1012.0 1011.8 -
23/08:30am 29.5 32.9 23.4 69 4.2 SSW 11 15 6 8 1012.1 1011.9 -
23/08:00am 29.1 33.4 24.2 75 3.4 SW 9 15 5 8 1012.0 1011.8 -
23/07:30am 28.4 32.9 24.0 77 3.0 SW 7 17 4 9 1011.7 1011.5 -
23/07:00am 27.8 33.9 24.4 82 2.4 CALM 0 4 0 2 1011.0 1010.8 -
23/06:30am 27.5 33.2 24.4 83 2.2 SW 2 4 1 2 1010.7 1010.5 -
23/06:00am 27.7 32.7 24.5 83 2.2 WSW 6 6 3 3 1010.4 1010.2 -
23/05:30am 27.9 33.0 24.7 83 2.2 SW 6 9 3 5 1010.1 1009.9 -
23/05:00am 27.9 33.0 24.7 83 2.2 WSW 6 9 3 5 1009.8 1009.6 -
23/04:30am 27.6 32.9 24.4 83 2.2 WNW 4 6 2 3 1009.7 1009.5 -
23/04:00am 27.5 33.6 24.4 83 2.2 CALM 0 0 0 0 1009.7 1009.5 -
23/03:30am 27.5 33.2 24.4 83 2.2 NW 2 4 1 2 1009.7 1009.5 -
23/03:00am 27.9 33.7 24.5 82 2.4 NW 2 4 1 2 1009.7 1009.5 0.0
23/02:30am 28.1 33.2 24.7 82 2.4 WNW 6 9 3 5 1009.8 1009.6 -
23/02:00am 28.5 33.1 24.7 80 2.7 W 9 15 5 8 1010.0 1009.8 -
23/01:30am 28.6 33.2 24.8 80 2.7 WNW 9 15 5 8 1010.4 1010.2 -
23/01:00am 28.8 33.0 24.8 79 2.8 W 11 17 6 9 1010.8 1010.6 -
23/12:30am 28.7 33.1 25.1 81 2.5 WNW 11 19 6 10 1010.9 1010.7 -
23/12:00am 28.5 33.8 24.9 81 2.5 WNW 6 13 3 7 1010.9 1010.7 -
 
Date/Time
CST
Temp
°C
App
Temp
°C
Dew
Point
°C
Rel
Hum
%
Delta-T
°C
Wind Press
QNH
hPa
Press
MSL
hPa
Rain since
9am
mm
Dir  Spd
km/h
Gust
km/h
Spd
kts
Gust
kts
22/11:30pm 28.6 33.7 25.0 81 2.5 WNW 7 13 4 7 1011.0 1010.8 -
22/11:00pm 28.6 33.3 25.0 81 2.5 NW 9 15 5 8 1011.1 1010.9 -
22/10:30pm 28.5 33.5 24.5 79 2.8 NW 6 13 3 7 1011.1 1010.9 -
22/10:00pm 28.7 33.5 24.5 78 2.9 NW 7 11 4 6 1011.3 1011.1 -
22/09:30pm 28.6 33.4 24.2 77 3.1 NW 6 9 3 5 1010.9 1010.7 -
22/09:00pm 28.7 33.6 24.3 77 3.1 NW 6 11 3 6 1010.7 1010.5 -
22/08:30pm 28.8 33.4 24.1 76 3.3 WNW 7 15 4 8 1010.5 1010.3 -
22/08:00pm 28.7 33.0 24.3 77 3.1 NW 9 15 5 8 1010.2 1010.0 -
22/07:30pm 28.8 32.9 23.9 75 3.4 NW 9 17 5 9 1009.8 1009.6 -
22/07:00pm 29.1 32.9 23.5 72 3.9 NW 9 20 5 11 1009.6 1009.4 -
22/06:30pm 29.3 33.2 23.0 69 4.3 NW 7 15 4 8 1009.4 1009.2 -
22/06:00pm 29.7 33.5 23.4 69 4.3 NNW 9 19 5 10 1009.1 1008.9 -
22/05:30pm 29.8 32.9 22.8 66 4.8 NNW 11 20 6 11 1008.8 1008.6 -
22/05:00pm 30.2 32.9 22.9 65 5.0 N 13 26 7 14 1008.3 1008.1 -
22/04:30pm 30.7 33.3 22.6 62 5.5 N 13 26 7 14 1008.4 1008.2 -
22/02:30pm 32.0 34.2 21.8 54 6.9 N 13 24 7 13 1009.2 1009.0 -
22/02:00pm 32.7 35.4 22.2 54 7.2 N 11 20 6 11 1009.6 1009.4 -
22/09:30am 30.9 33.6 21.4 57 6.4 W 9 17 5 9 1013.5 1013.3 0.0
22/09:00am 30.2 33.1 22.4 63 5.3 W 11 17 6 9 1013.4 1013.2 0.0
22/08:30am 30.2 33.0 20.4 55 6.5 WNW 6 13 3 7 1013.4 1013.2 0.0
22/08:00am 29.2 33.0 22.4 66 4.6 NW 6 7 3 4 1013.4 1013.2 0.0
22/07:30am 28.8 33.6 23.5 73 3.6 NW 4 7 2 4 1013.0 1012.8 0.0
22/07:00am 26.7 32.5 24.0 85 1.9 CALM 0 0 0 0 1012.4 1012.2 0.0
22/06:30am 25.4 30.8 23.3 88 1.4 CALM 0 0 0 0 1012.1 1011.9 0.0
22/06:00am 25.7 31.1 23.2 86 1.7 CALM 0 0 0 0 1011.8 1011.6 0.0
22/05:30am 26.1 31.2 23.4 85 1.8 SW 2 4 1 2 1011.7 1011.5 0.0
22/05:00am 26.4 31.4 23.9 86 1.7 SSW 4 6 2 3 1011.4 1011.2 0.0
22/04:30am 25.9 31.2 23.0 84 2.0 CALM 0 0 0 0 1011.0 1010.8 0.0
22/04:00am 25.9 31.2 23.0 84 2.0 CALM 0 0 0 0 1010.7 1010.5 0.0
22/03:30am 26.1 31.4 23.0 83 2.1 CALM 0 0 0 0 1010.5 1010.3 0.0
22/03:00am 26.3 31.6 23.0 82 2.2 CALM 0 0 0 0 1010.5 1010.3 0.0
22/02:30am 26.4 31.2 22.9 81 2.4 WSW 2 4 1 2 1010.5 1010.3 0.0
22/02:00am 26.5 31.7 22.8 80 2.5 CALM 0 0 0 0 1010.8 1010.6 0.0
22/01:30am 26.6 31.8 22.9 80 2.5 CALM 0 0 0 0 1011.0 1010.8 0.0
22/01:00am 26.6 31.8 22.9 80 2.5 CALM 0 0 0 0 1011.1 1010.9 0.0
22/12:30am 26.6 31.7 22.7 79 2.6 CALM 0 0 0 0 1011.3 1011.1 0.0
22/12:00am 26.9 32.0 22.7 78 2.8 CALM 0 0 0 0 1011.4 1011.2 0.0
 
Date/Time
CST
Temp
°C
App
Temp
°C
Dew
Point
°C
Rel
Hum
%
Delta-T
°C
Wind Press
QNH
hPa
Press
MSL
hPa
Rain since
9am
mm
Dir  Spd
km/h
Gust
km/h
Spd
kts
Gust
kts
21/11:30pm 27.2 32.4 22.8 77 3.0 CALM 0 0 0 0 1011.7 1011.5 0.0
21/11:00pm 27.4 32.6 22.8 76 3.1 CALM 0 0 0 0 1012.0 1011.8 0.0
21/10:30pm 27.7 32.9 22.9 75 3.3 CALM 0 0 0 0 1011.9 1011.7 0.0
21/10:00pm 27.7 32.9 22.9 75 3.3 CALM 0 2 0 1 1011.7 1011.5 0.0
21/09:30pm 27.9 32.6 22.6 73 3.6 N 2 2 1 1 1011.5 1011.3 0.0
21/09:00pm 28.2 33.3 22.7 72 3.7 CALM 0 0 0 0 1011.3 1011.1 0.0
21/08:30pm 28.4 33.0 22.4 70 4.1 NNE 2 4 1 2 1010.9 1010.7 0.0
21/08:00pm 28.6 32.9 22.6 70 4.1 N 4 7 2 4 1011.0 1010.8 0.0
21/07:30pm 28.7 33.3 22.4 68 4.3 N 2 7 1 4 1010.8 1010.6 0.0
21/07:00pm 28.9 33.0 22.2 67 4.5 NNE 4 9 2 5 1010.4 1010.2 0.0
21/06:30pm 29.3 32.1 22.3 66 4.7 NNE 11 15 6 8 1009.8 1009.6 0.0
21/06:00pm 30.1 33.0 21.7 60 5.7 NNE 9 17 5 9 1009.7 1009.5 0.0
21/05:30pm 31.1 33.5 21.6 57 6.4 NNE 11 17 6 9 1009.3 1009.1 0.0
21/05:00pm 31.9 33.8 20.5 51 7.6 NNE 11 17 6 9 1009.2 1009.0 0.0
21/04:30pm 32.6 35.4 21.5 52 7.5 N 9 17 5 9 1009.4 1009.2 0.0
21/04:00pm 33.0 36.1 22.1 52 7.4 N 9 17 5 9 1009.5 1009.3 0.0
21/03:30pm 32.8 35.2 21.6 51 7.6 N 11 20 6 11 1009.7 1009.5 0.0
21/03:00pm 33.2 35.3 21.0 48 8.2 NNW 11 20 6 11 1010.1 1009.9 0.0
21/02:30pm 34.5 36.7 20.5 44 9.4 N 9 15 5 8 1010.3 1010.1 0.0
21/02:00pm 33.8 36.1 20.6 46 8.8 ENE 9 15 5 8 1010.7 1010.5 0.0
21/01:30pm 34.5 36.7 20.5 44 9.4 NE 9 15 5 8 1011.3 1011.1 0.0
21/01:00pm 33.6 35.7 19.3 43 9.4 E 7 17 4 9 1012.0 1011.8 0.0
21/12:30pm 33.3 35.7 21.5 50 8.0 ENE 11 17 6 9 1012.6 1012.4 0.0
21/12:00pm 33.0 34.8 18.7 42 9.3 NW 7 13 4 7 1013.1 1012.9 0.0
21/11:30am 32.4 32.9 17.5 41 9.5 WNW 11 15 6 8 1013.7 1013.5 0.0
21/11:00am 32.0 34.3 19.9 48 8.0 W 7 11 4 6 1014.1 1013.9 0.0
21/10:30am 31.5 33.7 20.4 51 7.4 WNW 9 15 5 8 1014.4 1014.2 0.0
21/10:00am 30.6 33.6 22.7 62 5.4 WNW 11 19 6 10 1014.5 1014.3 0.0
21/09:30am 30.1 33.6 22.8 65 5.0 WNW 9 17 5 9 1014.6 1014.4 0.0
21/09:00am 29.5 32.1 22.0 64 5.1 W 11 17 6 9 1014.8 1014.6 0.0
21/08:30am 29.1 32.2 22.8 69 4.3 WNW 11 15 6 8 1014.5 1014.3 0.0
21/08:00am 28.5 32.7 23.4 74 3.5 WSW 7 11 4 6 1014.3 1014.1 0.0
21/07:30am 28.6 33.1 23.9 75 3.2 WSW 7 13 4 7 1013.9 1013.7 0.0
21/07:00am 27.5 33.4 24.1 82 2.3 CALM 0 0 0 0 1013.6 1013.4 0.0
21/06:30am 25.5 30.1 22.4 83 2.1 W 2 4 1 2 1013.3 1013.1 0.0
21/06:00am 25.6 30.5 22.3 82 2.2 CALM 0 0 0 0 1013.1 1012.9 0.0
21/05:30am 25.8 30.8 22.5 82 2.2 CALM 0 0 0 0 1012.9 1012.7 0.0
21/05:00am 26.1 31.2 22.6 81 2.4 CALM 0 4 0 2 1012.6 1012.4 0.0
21/04:30am 26.1 30.9 22.8 82 2.2 NW 2 6 1 3 1012.2 1012.0 0.0
21/04:00am 26.0 30.6 22.5 81 2.4 NW 2 4 1 2 1011.8 1011.6 0.0
21/03:30am 26.3 31.2 22.4 79 2.6 CALM 0 0 0 0 1011.8 1011.6 0.0
21/03:00am 26.6 31.5 22.4 78 2.8 CALM 0 2 0 1 1011.8 1011.6 0.0
21/02:30am 26.7 31.5 22.8 79 2.6 NW 2 4 1 2 1011.9 1011.7 0.0
21/02:00am 26.7 31.9 22.8 79 2.6 CALM 0 4 0 2 1012.3 1012.1 0.0
21/01:30am 26.8 31.9 22.6 78 2.8 CALM 0 0 0 0 1012.5 1012.3 0.0
21/01:00am 26.8 31.9 22.6 78 2.8 CALM 0 2 0 1 1012.6 1012.4 0.0
21/12:30am 26.8 31.7 22.4 77 3.0 CALM 0 0 0 0 1012.8 1012.6 0.0
21/12:00am 27.5 32.6 22.7 75 3.3 CALM 0 0 0 0 1013.0 1012.8 0.0
 
Date/Time
CST
Temp
°C
App
Temp
°C
Dew
Point
°C
Rel
Hum
%
Delta-T
°C
Wind Press
QNH
hPa
Press
MSL
hPa
Rain since
9am
mm
Dir  Spd
km/h
Gust
km/h
Spd
kts
Gust
kts
20/11:30pm 27.9 33.1 22.8 74 3.5 CALM 0 0 0 0 1013.2 1013.0 0.0
20/11:00pm 28.0 33.2 22.9 74 3.5 CALM 0 4 0 2 1013.3 1013.1 0.0
20/10:30pm 28.1 33.0 23.0 74 3.5 NW 2 4 1 2 1013.1 1012.9 0.0
20/10:00pm 28.2 32.8 23.1 74 3.5 NNW 4 7 2 4 1012.7 1012.5 0.0
20/09:30pm 28.4 33.0 23.1 73 3.6 NNW 4 7 2 4 1012.5 1012.3 0.0
20/09:00pm 28.4 32.7 22.6 71 3.9 NNW 4 9 2 5 1012.2 1012.0 0.0
20/08:30pm 28.5 32.7 22.5 70 4.1 NNW 4 9 2 5 1011.8 1011.6 0.0
20/08:00pm 28.6 32.3 22.6 70 4.1 NNW 7 11 4 6 1011.3 1011.1 0.0
20/07:30pm 28.6 32.5 22.6 70 4.1 NNW 6 11 3 6 1010.8 1010.6 0.0

Other Formats:

Comma delimited format used in spreadsheet applications
http://www.bom.gov.au/fwo/IDD60801/IDD60801.94139.axf

JavaScript Object Notation format (JSON) in row-major order
http://www.bom.gov.au/fwo/IDD60801/IDD60801.94139.json